sensor_id;sensor_type;location;lat;lon;timestamp;P1;durP1;ratioP1;P2;durP2;ratioP2
27796;SDS011;15177;50.844;4.412;2023-02-28T00:00:19;11.87;;;6.80;;
27796;SDS011;15177;50.844;4.412;2023-02-28T00:02:45;11.00;;;6.63;;
27796;SDS011;15177;50.844;4.412;2023-02-28T00:05:13;16.37;;;6.83;;
27796;SDS011;15177;50.844;4.412;2023-02-28T00:07:41;13.63;;;6.73;;
27796;SDS011;15177;50.844;4.412;2023-02-28T00:10:09;14.53;;;6.70;;
27796;SDS011;15177;50.844;4.412;2023-02-28T00:12:39;12.20;;;6.43;;
27796;SDS011;15177;50.844;4.412;2023-02-28T00:15:06;14.23;;;6.77;;
27796;SDS011;15177;50.844;4.412;2023-02-28T00:17:32;12.73;;;6.23;;
27796;SDS011;15177;50.844;4.412;2023-02-28T00:19:59;11.80;;;6.20;;
27796;SDS011;15177;50.844;4.412;2023-02-28T00:22:29;8.07;;;5.90;;
27796;SDS011;15177;50.844;4.412;2023-02-28T00:24:56;14.43;;;6.43;;
27796;SDS011;15177;50.844;4.412;2023-02-28T00:27:22;16.50;;;6.73;;
27796;SDS011;15177;50.844;4.412;2023-02-28T00:29:48;11.50;;;6.13;;
27796;SDS011;15177;50.844;4.412;2023-02-28T00:32:13;12.37;;;6.10;;
27796;SDS011;15177;50.844;4.412;2023-02-28T00:34:40;9.90;;;5.80;;
27796;SDS011;15177;50.844;4.412;2023-02-28T00:37:07;11.37;;;6.23;;
27796;SDS011;15177;50.844;4.412;2023-02-28T00:39:37;10.03;;;6.00;;
27796;SDS011;15177;50.844;4.412;2023-02-28T00:42:03;12.20;;;6.60;;
27796;SDS011;15177;50.844;4.412;2023-02-28T00:44:29;15.73;;;6.50;;
27796;SDS011;15177;50.844;4.412;2023-02-28T00:46:57;11.73;;;5.70;;
27796;SDS011;15177;50.844;4.412;2023-02-28T00:49:24;11.73;;;6.33;;
27796;SDS011;15177;50.844;4.412;2023-02-28T00:51:50;13.73;;;6.33;;
27796;SDS011;15177;50.844;4.412;2023-02-28T00:54:17;12.27;;;6.73;;
27796;SDS011;15177;50.844;4.412;2023-02-28T00:56:43;10.90;;;6.70;;
27796;SDS011;15177;50.844;4.412;2023-02-28T00:59:10;9.47;;;6.00;;
27796;SDS011;15177;50.844;4.412;2023-02-28T01:01:36;12.90;;;6.53;;
27796;SDS011;15177;50.844;4.412;2023-02-28T01:04:02;9.10;;;5.60;;
27796;SDS011;15177;50.844;4.412;2023-02-28T01:06:28;8.63;;;5.60;;
27796;SDS011;15177;50.844;4.412;2023-02-28T01:08:53;15.37;;;6.53;;
27796;SDS011;15177;50.844;4.412;2023-02-28T01:11:19;10.33;;;6.67;;
27796;SDS011;15177;50.844;4.412;2023-02-28T01:13:45;12.87;;;6.87;;
27796;SDS011;15177;50.844;4.412;2023-02-28T01:16:11;9.93;;;6.87;;
27796;SDS011;15177;50.844;4.412;2023-02-28T01:18:37;13.03;;;6.77;;
27796;SDS011;15177;50.844;4.412;2023-02-28T01:21:08;12.13;;;6.40;;
27796;SDS011;15177;50.844;4.412;2023-02-28T01:23:39;11.00;;;5.90;;
27796;SDS011;15177;50.844;4.412;2023-02-28T01:26:10;13.30;;;6.63;;
27796;SDS011;15177;50.844;4.412;2023-02-28T01:28:37;11.00;;;7.10;;
27796;SDS011;15177;50.844;4.412;2023-02-28T01:31:03;16.37;;;7.30;;
27796;SDS011;15177;50.844;4.412;2023-02-28T01:33:29;10.27;;;7.33;;
27796;SDS011;15177;50.844;4.412;2023-02-28T01:35:59;12.63;;;7.20;;
27796;SDS011;15177;50.844;4.412;2023-02-28T01:38:29;13.77;;;7.47;;
27796;SDS011;15177;50.844;4.412;2023-02-28T01:40:55;10.37;;;6.87;;
27796;SDS011;15177;50.844;4.412;2023-02-28T01:45:51;13.53;;;7.30;;
27796;SDS011;15177;50.844;4.412;2023-02-28T01:48:18;11.00;;;7.00;;
27796;SDS011;15177;50.844;4.412;2023-02-28T01:50:47;18.43;;;7.33;;
27796;SDS011;15177;50.844;4.412;2023-02-28T01:53:15;12.87;;;7.60;;
27796;SDS011;15177;50.844;4.412;2023-02-28T01:55:45;16.87;;;7.93;;
27796;SDS011;15177;50.844;4.412;2023-02-28T01:58:13;18.73;;;8.00;;
27796;SDS011;15177;50.844;4.412;2023-02-28T02:00:40;20.73;;;8.20;;
27796;SDS011;15177;50.844;4.412;2023-02-28T02:03:12;17.50;;;8.27;;
27796;SDS011;15177;50.844;4.412;2023-02-28T02:05:39;13.10;;;8.43;;
27796;SDS011;15177;50.844;4.412;2023-02-28T02:08:09;14.23;;;7.43;;
27796;SDS011;15177;50.844;4.412;2023-02-28T02:33:03;17.57;;;9.37;;
27796;SDS011;15177;50.844;4.412;2023-02-28T02:36:16;15.27;;;7.87;;
27796;SDS011;15177;50.844;4.412;2023-02-28T02:38:36;15.07;;;9.40;;
27796;SDS011;15177;50.844;4.412;2023-02-28T02:44:15;12.57;;;8.37;;
27796;SDS011;15177;50.844;4.412;2023-02-28T02:46:57;16.17;;;7.80;;
27796;SDS011;15177;50.844;4.412;2023-02-28T02:49:28;17.40;;;9.20;;
27796;SDS011;15177;50.844;4.412;2023-02-28T02:51:58;14.70;;;8.67;;
27796;SDS011;15177;50.844;4.412;2023-02-28T02:54:38;18.57;;;9.53;;
27796;SDS011;15177;50.844;4.412;2023-02-28T02:57:11;16.57;;;9.00;;
27796;SDS011;15177;50.844;4.412;2023-02-28T02:59:45;11.80;;;8.50;;
27796;SDS011;15177;50.844;4.412;2023-02-28T03:02:11;16.00;;;9.00;;
27796;SDS011;15177;50.844;4.412;2023-02-28T03:04:40;15.80;;;9.50;;
27796;SDS011;15177;50.844;4.412;2023-02-28T03:07:11;16.50;;;8.53;;
27796;SDS011;15177;50.844;4.412;2023-02-28T03:09:36;17.80;;;9.03;;
27796;SDS011;15177;50.844;4.412;2023-02-28T03:12:02;15.57;;;9.63;;
27796;SDS011;15177;50.844;4.412;2023-02-28T03:28:34;15.57;;;8.80;;
27796;SDS011;15177;50.844;4.412;2023-02-28T03:31:22;15.23;;;9.70;;
27796;SDS011;15177;50.844;4.412;2023-02-28T03:34:08;16.63;;;9.30;;
27796;SDS011;15177;50.844;4.412;2023-02-28T03:36:47;19.80;;;10.77;;
27796;SDS011;15177;50.844;4.412;2023-02-28T03:39:20;15.83;;;9.53;;
27796;SDS011;15177;50.844;4.412;2023-02-28T03:42:10;13.10;;;9.70;;
27796;SDS011;15177;50.844;4.412;2023-02-28T03:44:42;18.27;;;10.20;;
27796;SDS011;15177;50.844;4.412;2023-02-28T03:47:11;16.20;;;9.60;;
27796;SDS011;15177;50.844;4.412;2023-02-28T03:49:49;16.33;;;10.43;;
27796;SDS011;15177;50.844;4.412;2023-02-28T03:52:19;24.03;;;10.83;;
27796;SDS011;15177;50.844;4.412;2023-02-28T03:54:50;22.73;;;10.63;;
27796;SDS011;15177;50.844;4.412;2023-02-28T03:57:26;15.03;;;10.17;;
27796;SDS011;15177;50.844;4.412;2023-02-28T04:00:05;16.93;;;9.37;;
27796;SDS011;15177;50.844;4.412;2023-02-28T04:02:44;18.67;;;9.87;;
27796;SDS011;15177;50.844;4.412;2023-02-28T04:05:11;16.17;;;10.73;;
27796;SDS011;15177;50.844;4.412;2023-02-28T04:07:37;16.40;;;10.10;;
27796;SDS011;15177;50.844;4.412;2023-02-28T04:10:03;19.33;;;10.10;;
27796;SDS011;15177;50.844;4.412;2023-02-28T04:12:29;18.23;;;10.57;;
27796;SDS011;15177;50.844;4.412;2023-02-28T04:14:55;21.20;;;10.20;;
27796;SDS011;15177;50.844;4.412;2023-02-28T04:17:21;21.60;;;11.77;;
27796;SDS011;15177;50.844;4.412;2023-02-28T04:19:46;15.73;;;9.97;;
27796;SDS011;15177;50.844;4.412;2023-02-28T04:22:13;14.83;;;10.30;;
27796;SDS011;15177;50.844;4.412;2023-02-28T04:24:39;20.23;;;10.60;;
27796;SDS011;15177;50.844;4.412;2023-02-28T04:27:06;21.67;;;11.10;;
27796;SDS011;15177;50.844;4.412;2023-02-28T04:29:33;19.87;;;10.87;;
27796;SDS011;15177;50.844;4.412;2023-02-28T04:31:59;17.70;;;13.27;;
27796;SDS011;15177;50.844;4.412;2023-02-28T04:34:26;15.97;;;10.07;;
27796;SDS011;15177;50.844;4.412;2023-02-28T04:36:53;19.10;;;11.07;;
27796;SDS011;15177;50.844;4.412;2023-02-28T04:39:21;17.53;;;10.23;;
27796;SDS011;15177;50.844;4.412;2023-02-28T04:41:47;19.03;;;10.43;;
27796;SDS011;15177;50.844;4.412;2023-02-28T04:44:13;20.80;;;10.77;;
27796;SDS011;15177;50.844;4.412;2023-02-28T04:46:39;30.53;;;10.77;;
27796;SDS011;15177;50.844;4.412;2023-02-28T04:49:06;16.63;;;10.10;;
27796;SDS011;15177;50.844;4.412;2023-02-28T04:51:31;18.13;;;10.47;;
27796;SDS011;15177;50.844;4.412;2023-02-28T04:53:57;20.97;;;11.27;;
27796;SDS011;15177;50.844;4.412;2023-02-28T04:56:23;20.80;;;10.77;;
27796;SDS011;15177;50.844;4.412;2023-02-28T04:58:49;17.90;;;10.93;;
27796;SDS011;15177;50.844;4.412;2023-02-28T05:03:44;17.57;;;10.93;;
27796;SDS011;15177;50.844;4.412;2023-02-28T05:06:11;22.80;;;11.60;;
27796;SDS011;15177;50.844;4.412;2023-02-28T05:08:37;20.43;;;10.90;;
27796;SDS011;15177;50.844;4.412;2023-02-28T05:11:03;22.83;;;11.33;;
27796;SDS011;15177;50.844;4.412;2023-02-28T05:13:33;26.47;;;11.43;;
27796;SDS011;15177;50.844;4.412;2023-02-28T05:16:00;21.13;;;11.63;;
27796;SDS011;15177;50.844;4.412;2023-02-28T05:18:26;20.07;;;11.23;;
27796;SDS011;15177;50.844;4.412;2023-02-28T05:20:51;20.47;;;12.07;;
27796;SDS011;15177;50.844;4.412;2023-02-28T05:23:17;18.37;;;11.10;;
27796;SDS011;15177;50.844;4.412;2023-02-28T05:25:46;20.03;;;10.97;;
27796;SDS011;15177;50.844;4.412;2023-02-28T05:28:12;19.50;;;11.73;;
27796;SDS011;15177;50.844;4.412;2023-02-28T05:30:37;19.30;;;11.07;;
27796;SDS011;15177;50.844;4.412;2023-02-28T05:33:03;24.93;;;11.40;;
27796;SDS011;15177;50.844;4.412;2023-02-28T05:35:29;21.73;;;11.20;;
27796;SDS011;15177;50.844;4.412;2023-02-28T05:37:54;16.73;;;10.63;;
27796;SDS011;15177;50.844;4.412;2023-02-28T05:40:21;21.73;;;11.30;;
27796;SDS011;15177;50.844;4.412;2023-02-28T05:42:47;17.00;;;11.37;;
27796;SDS011;15177;50.844;4.412;2023-02-28T05:45:14;18.53;;;10.47;;
27796;SDS011;15177;50.844;4.412;2023-02-28T05:47:40;16.60;;;11.23;;
27796;SDS011;15177;50.844;4.412;2023-02-28T05:50:06;21.00;;;11.57;;
27796;SDS011;15177;50.844;4.412;2023-02-28T05:52:32;19.40;;;10.77;;
27796;SDS011;15177;50.844;4.412;2023-02-28T05:54:58;17.57;;;10.73;;
27796;SDS011;15177;50.844;4.412;2023-02-28T05:57:25;19.00;;;10.37;;
27796;SDS011;15177;50.844;4.412;2023-02-28T05:59:50;16.40;;;10.10;;
27796;SDS011;15177;50.844;4.412;2023-02-28T06:02:17;17.40;;;10.90;;
27796;SDS011;15177;50.844;4.412;2023-02-28T06:04:43;16.33;;;10.67;;
27796;SDS011;15177;50.844;4.412;2023-02-28T06:07:09;18.50;;;10.97;;
27796;SDS011;15177;50.844;4.412;2023-02-28T06:09:36;17.93;;;10.67;;
27796;SDS011;15177;50.844;4.412;2023-02-28T06:12:03;22.07;;;11.37;;
27796;SDS011;15177;50.844;4.412;2023-02-28T06:14:34;19.50;;;11.10;;
27796;SDS011;15177;50.844;4.412;2023-02-28T06:17:01;20.00;;;10.53;;
27796;SDS011;15177;50.844;4.412;2023-02-28T06:19:27;21.97;;;10.40;;
27796;SDS011;15177;50.844;4.412;2023-02-28T06:21:54;20.83;;;10.67;;
27796;SDS011;15177;50.844;4.412;2023-02-28T06:24:20;21.00;;;9.83;;
27796;SDS011;15177;50.844;4.412;2023-02-28T06:26:48;17.03;;;11.37;;
27796;SDS011;15177;50.844;4.412;2023-02-28T06:29:14;19.30;;;10.43;;
27796;SDS011;15177;50.844;4.412;2023-02-28T06:31:44;21.00;;;10.13;;
27796;SDS011;15177;50.844;4.412;2023-02-28T06:34:11;18.70;;;10.60;;
27796;SDS011;15177;50.844;4.412;2023-02-28T06:36:38;19.27;;;10.63;;
27796;SDS011;15177;50.844;4.412;2023-02-28T06:39:05;18.23;;;11.17;;
27796;SDS011;15177;50.844;4.412;2023-02-28T06:41:31;17.67;;;10.57;;
27796;SDS011;15177;50.844;4.412;2023-02-28T06:44:02;18.40;;;9.47;;
27796;SDS011;15177;50.844;4.412;2023-02-28T06:46:36;29.60;;;11.90;;
27796;SDS011;15177;50.844;4.412;2023-02-28T06:49:03;17.83;;;10.97;;
27796;SDS011;15177;50.844;4.412;2023-02-28T06:51:30;18.33;;;10.67;;
27796;SDS011;15177;50.844;4.412;2023-02-28T06:53:55;23.77;;;10.80;;
27796;SDS011;15177;50.844;4.412;2023-02-28T06:56:21;18.80;;;10.93;;
27796;SDS011;15177;50.844;4.412;2023-02-28T06:58:50;20.40;;;10.50;;
27796;SDS011;15177;50.844;4.412;2023-02-28T07:01:17;22.57;;;10.37;;
27796;SDS011;15177;50.844;4.412;2023-02-28T07:03:44;16.80;;;9.73;;
27796;SDS011;15177;50.844;4.412;2023-02-28T07:06:11;19.13;;;10.50;;
27796;SDS011;15177;50.844;4.412;2023-02-28T07:08:37;23.37;;;11.27;;
27796;SDS011;15177;50.844;4.412;2023-02-28T07:11:07;21.67;;;10.60;;
27796;SDS011;15177;50.844;4.412;2023-02-28T07:13:33;15.83;;;9.70;;
27796;SDS011;15177;50.844;4.412;2023-02-28T07:16:03;20.03;;;10.03;;
27796;SDS011;15177;50.844;4.412;2023-02-28T07:18:32;16.43;;;9.07;;
27796;SDS011;15177;50.844;4.412;2023-02-28T07:21:03;18.73;;;10.40;;
27796;SDS011;15177;50.844;4.412;2023-02-28T07:23:32;17.90;;;9.23;;
27796;SDS011;15177;50.844;4.412;2023-02-28T07:25:58;15.67;;;9.63;;
27796;SDS011;15177;50.844;4.412;2023-02-28T07:28:24;19.27;;;9.87;;
27796;SDS011;15177;50.844;4.412;2023-02-28T07:30:51;15.80;;;9.20;;
27796;SDS011;15177;50.844;4.412;2023-02-28T07:33:20;15.90;;;8.40;;
27796;SDS011;15177;50.844;4.412;2023-02-28T07:35:46;13.27;;;8.10;;
27796;SDS011;15177;50.844;4.412;2023-02-28T07:38:11;14.77;;;7.67;;
27796;SDS011;15177;50.844;4.412;2023-02-28T07:40:40;13.03;;;7.10;;
27796;SDS011;15177;50.844;4.412;2023-02-28T07:43:07;15.90;;;7.67;;
27796;SDS011;15177;50.844;4.412;2023-02-28T07:45:34;13.13;;;7.60;;
27796;SDS011;15177;50.844;4.412;2023-02-28T07:48:00;11.40;;;6.73;;
27796;SDS011;15177;50.844;4.412;2023-02-28T07:50:27;11.50;;;6.70;;
27796;SDS011;15177;50.844;4.412;2023-02-28T07:52:57;8.93;;;5.87;;
27796;SDS011;15177;50.844;4.412;2023-02-28T07:55:31;12.37;;;6.03;;
27796;SDS011;15177;50.844;4.412;2023-02-28T07:58:01;8.40;;;6.03;;
27796;SDS011;15177;50.844;4.412;2023-02-28T08:00:27;10.33;;;6.27;;
27796;SDS011;15177;50.844;4.412;2023-02-28T08:02:55;11.97;;;5.93;;
27796;SDS011;15177;50.844;4.412;2023-02-28T08:05:21;8.97;;;5.73;;
27796;SDS011;15177;50.844;4.412;2023-02-28T08:07:48;7.77;;;5.90;;
27796;SDS011;15177;50.844;4.412;2023-02-28T08:10:15;8.33;;;5.27;;
27796;SDS011;15177;50.844;4.412;2023-02-28T08:12:42;7.43;;;4.70;;
27796;SDS011;15177;50.844;4.412;2023-02-28T08:15:08;12.57;;;5.23;;
27796;SDS011;15177;50.844;4.412;2023-02-28T08:17:34;10.07;;;4.93;;
27796;SDS011;15177;50.844;4.412;2023-02-28T08:20:02;7.70;;;4.47;;
27796;SDS011;15177;50.844;4.412;2023-02-28T08:22:31;9.17;;;4.63;;
27796;SDS011;15177;50.844;4.412;2023-02-28T08:24:58;6.73;;;4.37;;
27796;SDS011;15177;50.844;4.412;2023-02-28T08:27:26;9.40;;;5.37;;
27796;SDS011;15177;50.844;4.412;2023-02-28T08:29:51;10.93;;;4.50;;
27796;SDS011;15177;50.844;4.412;2023-02-28T08:32:17;8.73;;;4.03;;
27796;SDS011;15177;50.844;4.412;2023-02-28T08:34:44;9.13;;;4.40;;
27796;SDS011;15177;50.844;4.412;2023-02-28T08:37:13;11.27;;;4.53;;
27796;SDS011;15177;50.844;4.412;2023-02-28T08:39:40;6.07;;;4.20;;
27796;SDS011;15177;50.844;4.412;2023-02-28T08:42:06;6.53;;;4.40;;
27796;SDS011;15177;50.844;4.412;2023-02-28T08:44:32;6.93;;;4.03;;
27796;SDS011;15177;50.844;4.412;2023-02-28T08:46:58;8.77;;;4.00;;
27796;SDS011;15177;50.844;4.412;2023-02-28T08:49:25;10.93;;;4.40;;
27796;SDS011;15177;50.844;4.412;2023-02-28T08:51:51;6.30;;;3.80;;
27796;SDS011;15177;50.844;4.412;2023-02-28T08:54:24;5.30;;;4.07;;
27796;SDS011;15177;50.844;4.412;2023-02-28T08:56:51;5.97;;;4.17;;
27796;SDS011;15177;50.844;4.412;2023-02-28T08:59:17;6.47;;;4.40;;
27796;SDS011;15177;50.844;4.412;2023-02-28T09:01:43;10.53;;;4.30;;
27796;SDS011;15177;50.844;4.412;2023-02-28T09:04:12;5.60;;;3.77;;
27796;SDS011;15177;50.844;4.412;2023-02-28T09:06:38;9.00;;;4.73;;
27796;SDS011;15177;50.844;4.412;2023-02-28T09:09:04;7.97;;;4.37;;
27796;SDS011;15177;50.844;4.412;2023-02-28T09:11:33;6.53;;;3.83;;
27796;SDS011;15177;50.844;4.412;2023-02-28T09:14:01;6.50;;;3.53;;
27796;SDS011;15177;50.844;4.412;2023-02-28T09:16:28;10.10;;;4.00;;
27796;SDS011;15177;50.844;4.412;2023-02-28T09:18:55;5.83;;;4.03;;
27796;SDS011;15177;50.844;4.412;2023-02-28T09:21:21;8.53;;;3.47;;
27796;SDS011;15177;50.844;4.412;2023-02-28T09:23:47;8.83;;;3.97;;
27796;SDS011;15177;50.844;4.412;2023-02-28T09:26:16;7.13;;;3.77;;
27796;SDS011;15177;50.844;4.412;2023-02-28T09:28:44;8.47;;;4.13;;
27796;SDS011;15177;50.844;4.412;2023-02-28T09:31:19;6.90;;;3.30;;
27796;SDS011;15177;50.844;4.412;2023-02-28T09:33:54;5.03;;;2.83;;
27796;SDS011;15177;50.844;4.412;2023-02-28T09:36:27;5.18;;;2.97;;
27796;SDS011;15177;50.844;4.412;2023-02-28T09:39:00;7.10;;;3.13;;
27796;SDS011;15177;50.844;4.412;2023-02-28T09:41:29;6.05;;;3.28;;
27796;SDS011;15177;50.844;4.412;2023-02-28T09:45:02;3.92;;;2.90;;
27796;SDS011;15177;50.844;4.412;2023-02-28T09:47:14;7.65;;;3.35;;
27796;SDS011;15177;50.844;4.412;2023-02-28T09:49:54;6.90;;;2.92;;
27796;SDS011;15177;50.844;4.412;2023-02-28T09:52:27;3.95;;;2.40;;
27796;SDS011;15177;50.844;4.412;2023-02-28T09:54:55;6.63;;;2.72;;
27796;SDS011;15177;50.844;4.412;2023-02-28T09:57:43;7.40;;;2.78;;
27796;SDS011;15177;50.844;4.412;2023-02-28T10:08:11;3.33;;;2.03;;
27796;SDS011;15177;50.844;4.412;2023-02-28T10:10:47;4.87;;;2.53;;
27796;SDS011;15177;50.844;4.412;2023-02-28T10:13:23;4.72;;;2.75;;
27796;SDS011;15177;50.844;4.412;2023-02-28T10:16:01;4.90;;;2.55;;
27796;SDS011;15177;50.844;4.412;2023-02-28T10:18:56;5.85;;;2.60;;
27796;SDS011;15177;50.844;4.412;2023-02-28T10:23:56;4.22;;;2.60;;
27796;SDS011;15177;50.844;4.412;2023-02-28T10:26:36;3.17;;;2.58;;
27796;SDS011;15177;50.844;4.412;2023-02-28T10:29:04;5.22;;;2.78;;
27796;SDS011;15177;50.844;4.412;2023-02-28T10:31:30;2.63;;;2.03;;
27796;SDS011;15177;50.844;4.412;2023-02-28T10:33:56;3.00;;;2.08;;
27796;SDS011;15177;50.844;4.412;2023-02-28T10:36:24;4.93;;;1.87;;
27796;SDS011;15177;50.844;4.412;2023-02-28T10:38:55;5.20;;;2.30;;
27796;SDS011;15177;50.844;4.412;2023-02-28T10:41:29;5.33;;;1.93;;
27796;SDS011;15177;50.844;4.412;2023-02-28T10:44:15;4.47;;;2.00;;
27796;SDS011;15177;50.844;4.412;2023-02-28T10:46:48;4.10;;;2.27;;
27796;SDS011;15177;50.844;4.412;2023-02-28T10:49:28;3.83;;;2.17;;
27796;SDS011;15177;50.844;4.412;2023-02-28T10:51:56;2.83;;;1.93;;
27796;SDS011;15177;50.844;4.412;2023-02-28T10:57:12;4.00;;;2.20;;
27796;SDS011;15177;50.844;4.412;2023-02-28T10:59:43;3.00;;;2.00;;
27796;SDS011;15177;50.844;4.412;2023-02-28T11:02:31;3.83;;;2.13;;
27796;SDS011;15177;50.844;4.412;2023-02-28T11:05:26;6.00;;;2.50;;
27796;SDS011;15177;50.844;4.412;2023-02-28T11:10:53;7.50;;;2.60;;
27796;SDS011;15177;50.844;4.412;2023-02-28T11:13:26;2.80;;;2.23;;
27796;SDS011;15177;50.844;4.412;2023-02-28T11:16:00;3.87;;;2.43;;
27796;SDS011;15177;50.844;4.412;2023-02-28T11:18:43;5.13;;;2.40;;
27796;SDS011;15177;50.844;4.412;2023-02-28T11:21:27;4.30;;;2.20;;
27796;SDS011;15177;50.844;4.412;2023-02-28T11:24:24;4.87;;;2.63;;
27796;SDS011;15177;50.844;4.412;2023-02-28T11:27:17;5.23;;;2.63;;
27796;SDS011;15177;50.844;4.412;2023-02-28T11:29:56;5.80;;;2.60;;
27796;SDS011;15177;50.844;4.412;2023-02-28T11:32:25;5.37;;;2.47;;
27796;SDS011;15177;50.844;4.412;2023-02-28T11:37:35;3.40;;;2.30;;
27796;SDS011;15177;50.844;4.412;2023-02-28T11:40:01;4.00;;;2.70;;
27796;SDS011;15177;50.844;4.412;2023-02-28T11:45:44;5.90;;;2.90;;
27796;SDS011;15177;50.844;4.412;2023-02-28T11:56:44;5.03;;;3.37;;
27796;SDS011;15177;50.844;4.412;2023-02-28T12:07:42;6.00;;;2.80;;
27796;SDS011;15177;50.844;4.412;2023-02-28T12:10:32;3.87;;;2.50;;
27796;SDS011;15177;50.844;4.412;2023-02-28T12:15:54;5.80;;;2.30;;
27796;SDS011;15177;50.844;4.412;2023-02-28T12:18:29;6.30;;;2.63;;
27796;SDS011;15177;50.844;4.412;2023-02-28T12:21:38;12.33;;;3.73;;
27796;SDS011;15177;50.844;4.412;2023-02-28T12:26:51;8.60;;;2.83;;
27796;SDS011;15177;50.844;4.412;2023-02-28T12:29:19;4.63;;;2.53;;
27796;SDS011;15177;50.844;4.412;2023-02-28T12:31:53;3.87;;;2.60;;
27796;SDS011;15177;50.844;4.412;2023-02-28T12:37:37;5.63;;;2.70;;
27796;SDS011;15177;50.844;4.412;2023-02-28T12:40:18;3.97;;;3.07;;
27796;SDS011;15177;50.844;4.412;2023-02-28T12:42:57;3.17;;;2.20;;
27796;SDS011;15177;50.844;4.412;2023-02-28T12:45:48;5.87;;;2.90;;
27796;SDS011;15177;50.844;4.412;2023-02-28T12:48:31;4.73;;;2.50;;
27796;SDS011;15177;50.844;4.412;2023-02-28T12:51:30;5.77;;;2.67;;
27796;SDS011;15177;50.844;4.412;2023-02-28T12:57:11;3.03;;;2.53;;
27796;SDS011;15177;50.844;4.412;2023-02-28T12:59:55;3.07;;;2.50;;
27796;SDS011;15177;50.844;4.412;2023-02-28T13:10:51;4.73;;;2.70;;
27796;SDS011;15177;50.844;4.412;2023-02-28T13:13:24;4.87;;;2.93;;
27796;SDS011;15177;50.844;4.412;2023-02-28T13:16:06;3.13;;;2.60;;
27796;SDS011;15177;50.844;4.412;2023-02-28T13:19:08;6.27;;;3.17;;
27796;SDS011;15177;50.844;4.412;2023-02-28T13:21:47;3.87;;;2.90;;
27796;SDS011;15177;50.844;4.412;2023-02-28T13:29:32;4.47;;;2.80;;
27796;SDS011;15177;50.844;4.412;2023-02-28T13:42:48;6.30;;;2.77;;
27796;SDS011;15177;50.844;4.412;2023-02-28T13:48:15;4.50;;;2.13;;
27796;SDS011;15177;50.844;4.412;2023-02-28T13:50:55;8.37;;;2.80;;
27796;SDS011;15177;50.844;4.412;2023-02-28T13:53:39;5.53;;;2.87;;
27796;SDS011;15177;50.844;4.412;2023-02-28T13:56:23;4.53;;;3.13;;
27796;SDS011;15177;50.844;4.412;2023-02-28T14:07:48;6.07;;;2.93;;
27796;SDS011;15177;50.844;4.412;2023-02-28T14:16:09;4.30;;;2.80;;
27796;SDS011;15177;50.844;4.412;2023-02-28T14:19:14;5.77;;;3.00;;
27796;SDS011;15177;50.844;4.412;2023-02-28T14:36:46;5.67;;;3.07;;
27796;SDS011;15177;50.844;4.412;2023-02-28T14:39:06;5.20;;;3.07;;
27796;SDS011;15177;50.844;4.412;2023-02-28T14:41:37;5.20;;;4.13;;
27796;SDS011;15177;50.844;4.412;2023-02-28T14:46:45;8.40;;;3.13;;
27796;SDS011;15177;50.844;4.412;2023-02-28T14:51:47;4.23;;;2.90;;
27796;SDS011;15177;50.844;4.412;2023-02-28T14:54:16;7.50;;;3.57;;
27796;SDS011;15177;50.844;4.412;2023-02-28T14:56:49;5.07;;;2.97;;
27796;SDS011;15177;50.844;4.412;2023-02-28T14:59:29;9.67;;;2.83;;
27796;SDS011;15177;50.844;4.412;2023-02-28T15:02:30;8.03;;;3.00;;
27796;SDS011;15177;50.844;4.412;2023-02-28T15:05:33;6.70;;;3.50;;
27796;SDS011;15177;50.844;4.412;2023-02-28T15:07:41;7.57;;;3.60;;
27796;SDS011;15177;50.844;4.412;2023-02-28T15:10:16;3.73;;;3.30;;
27796;SDS011;15177;50.844;4.412;2023-02-28T15:15:21;6.67;;;3.47;;
27796;SDS011;15177;50.844;4.412;2023-02-28T15:17:51;4.57;;;3.43;;
27796;SDS011;15177;50.844;4.412;2023-02-28T15:20:21;5.53;;;3.70;;
27796;SDS011;15177;50.844;4.412;2023-02-28T15:22:51;4.73;;;3.40;;
27796;SDS011;15177;50.844;4.412;2023-02-28T15:25:21;4.23;;;2.93;;
27796;SDS011;15177;50.844;4.412;2023-02-28T15:27:52;5.17;;;3.30;;
27796;SDS011;15177;50.844;4.412;2023-02-28T15:30:24;5.27;;;3.17;;
27796;SDS011;15177;50.844;4.412;2023-02-28T15:35:41;6.93;;;3.47;;
27796;SDS011;15177;50.844;4.412;2023-02-28T15:40:42;6.67;;;3.63;;
27796;SDS011;15177;50.844;4.412;2023-02-28T15:43:39;4.90;;;3.20;;
27796;SDS011;15177;50.844;4.412;2023-02-28T15:48:36;4.37;;;2.70;;
27796;SDS011;15177;50.844;4.412;2023-02-28T15:51:12;4.37;;;3.20;;
27796;SDS011;15177;50.844;4.412;2023-02-28T15:53:50;5.50;;;3.57;;
27796;SDS011;15177;50.844;4.412;2023-02-28T15:56:26;4.30;;;3.53;;
27796;SDS011;15177;50.844;4.412;2023-02-28T15:58:58;7.57;;;3.47;;
27796;SDS011;15177;50.844;4.412;2023-02-28T16:04:01;5.53;;;3.63;;
27796;SDS011;15177;50.844;4.412;2023-02-28T16:06:33;5.00;;;3.10;;
27796;SDS011;15177;50.844;4.412;2023-02-28T16:09:00;5.43;;;3.63;;
27796;SDS011;15177;50.844;4.412;2023-02-28T16:11:26;7.23;;;3.77;;
27796;SDS011;15177;50.844;4.412;2023-02-28T16:13:52;4.47;;;3.23;;
27796;SDS011;15177;50.844;4.412;2023-02-28T16:16:20;4.50;;;3.00;;
27796;SDS011;15177;50.844;4.412;2023-02-28T16:18:47;5.83;;;3.70;;
27796;SDS011;15177;50.844;4.412;2023-02-28T16:21:13;8.63;;;3.60;;
27796;SDS011;15177;50.844;4.412;2023-02-28T16:23:40;5.03;;;3.17;;
27796;SDS011;15177;50.844;4.412;2023-02-28T16:26:06;6.03;;;4.10;;
27796;SDS011;15177;50.844;4.412;2023-02-28T16:28:34;6.73;;;3.47;;
27796;SDS011;15177;50.844;4.412;2023-02-28T16:31:04;7.43;;;3.60;;
27796;SDS011;15177;50.844;4.412;2023-02-28T16:33:32;6.60;;;3.40;;
27796;SDS011;15177;50.844;4.412;2023-02-28T16:35:58;6.57;;;3.70;;
27796;SDS011;15177;50.844;4.412;2023-02-28T16:38:25;5.47;;;3.07;;
27796;SDS011;15177;50.844;4.412;2023-02-28T16:40:51;6.40;;;3.83;;
27796;SDS011;15177;50.844;4.412;2023-02-28T16:43:18;6.10;;;3.23;;
27796;SDS011;15177;50.844;4.412;2023-02-28T16:45:48;5.10;;;3.33;;
27796;SDS011;15177;50.844;4.412;2023-02-28T16:48:14;8.17;;;3.70;;
27796;SDS011;15177;50.844;4.412;2023-02-28T16:50:41;4.83;;;2.83;;
27796;SDS011;15177;50.844;4.412;2023-02-28T16:53:08;6.27;;;3.77;;
27796;SDS011;15177;50.844;4.412;2023-02-28T16:55:34;8.27;;;3.47;;
27796;SDS011;15177;50.844;4.412;2023-02-28T16:58:02;4.20;;;2.83;;
27796;SDS011;15177;50.844;4.412;2023-02-28T17:00:28;6.37;;;3.67;;
27796;SDS011;15177;50.844;4.412;2023-02-28T17:02:56;5.67;;;3.17;;
27796;SDS011;15177;50.844;4.412;2023-02-28T17:05:23;6.63;;;2.93;;
27796;SDS011;15177;50.844;4.412;2023-02-28T17:07:50;8.10;;;3.00;;
27796;SDS011;15177;50.844;4.412;2023-02-28T17:12:43;12.20;;;3.33;;
27796;SDS011;15177;50.844;4.412;2023-02-28T17:15:13;7.40;;;3.50;;
27796;SDS011;15177;50.844;4.412;2023-02-28T17:17:40;5.57;;;3.50;;
27796;SDS011;15177;50.844;4.412;2023-02-28T17:20:07;7.03;;;3.40;;
27796;SDS011;15177;50.844;4.412;2023-02-28T17:22:53;3.23;;;2.80;;
27796;SDS011;15177;50.844;4.412;2023-02-28T17:25:20;7.80;;;3.33;;
27796;SDS011;15177;50.844;4.412;2023-02-28T17:27:45;7.43;;;2.77;;
27796;SDS011;15177;50.844;4.412;2023-02-28T17:30:19;11.60;;;4.37;;
27796;SDS011;15177;50.844;4.412;2023-02-28T17:32:47;3.97;;;2.67;;
27796;SDS011;15177;50.844;4.412;2023-02-28T17:35:12;4.60;;;3.60;;
27796;SDS011;15177;50.844;4.412;2023-02-28T17:37:38;5.87;;;3.50;;
27796;SDS011;15177;50.844;4.412;2023-02-28T17:40:05;5.77;;;3.23;;
27796;SDS011;15177;50.844;4.412;2023-02-28T17:42:31;4.27;;;3.10;;
27796;SDS011;15177;50.844;4.412;2023-02-28T17:44:58;5.93;;;3.43;;
27796;SDS011;15177;50.844;4.412;2023-02-28T17:47:24;8.70;;;3.93;;
27796;SDS011;15177;50.844;4.412;2023-02-28T17:49:51;5.83;;;4.23;;